Monte Tamaro — DFKP2 — position and weather

sailwx.info

Track history (hours):
 
Tides and Currents Weather Stations Pressure Air Temp Water Temp Dewpoint Dewpoint Depression Visibility Wind Speed Wind Dir Waves Ship Positions

Monte Tamaro

Last reported at 2015-Sep-03 11:17 UTC. Time now 2015-Sep-04 12:29 UTC.
Position S 27°33' W 047°54'.

Length 272.1 m; beam 40.1 m; draft 13.2 m.

Type: Ship (hazmat cat B). MMSI: 218132000.

Date/timePositionNaut miles runAvg speedWind from/ knotsBaromVisibWave heightAir tempDewpointWater temp
2015-Sep-03 11:17S 27°33' W 047°54'19615.4
2015-Sep-02 22:33S 24°31' W 046°34'1514.9
2015-Sep-02 21:34S 24°17' W 046°28'1514.9
2015-Sep-02 20:33S 24°03' W 046°22'7 6.6
2015-Sep-02 19:33S 23°58' W 046°18'0 0.0
2015-Sep-02 18:15S 23°58' W 046°18'0 0.0
2015-Sep-02 17:27S 23°58' W 046°18'0 0.0
2015-Sep-02 16:15S 23°58' W 046°18'0 0.0
2015-Sep-02 14:27S 23°58' W 046°18'0 0.0
2015-Sep-02 13:27S 23°58' W 046°18'0 0.0
2015-Sep-02 11:33S 23°58' W 046°18'0 0.0
2015-Sep-02 10:21S 23°58' W 046°18'0 0.0
2015-Sep-02 08:27S 23°58' W 046°18'0 0.0
2015-Sep-02 06:27S 23°58' W 046°18'3 3.4
2015-Sep-02 05:33S 23°60' W 046°20'8 8.5
2015-Sep-02 04:33S 24°05' W 046°12'2 2.5
2015-Sep-02 03:33S 24°05' W 046°10'1 0.7
2015-Sep-02 02:33S 24°05' W 046°09'0 0.2
2015-Sep-02 01:33S 24°05' W 046°09'3 3.4
2015-Sep-02 00:33S 24°04' W 046°05'61314.4
2015-Aug-31 06:00S 17°18' W 037°54'   070 / 111019.410.8 1.022.718.026.0
2015-Aug-27 18:00N 01°30' W 038°36'   110 / 211009.910.8 2.532.122.228.0
2015-Aug-25 06:00N 14°00' W 051°36'21718.1 020 / 221009.0 5.4 3.526.825.028.0
2015-Aug-24 18:00N 16°30' W 054°18'   070 / 221011.910.8 3.529.124.428.0
Track history (hours):
 
Tides and Currents Weather Stations Pressure Air Temp Water Temp Dewpoint Dewpoint Depression Visibility Wind Speed Wind Dir Waves Ship Positions

Monte Tamaro

Last reported at 2015-Sep-03 11:17 UTC. Time now 2015-Sep-04 12:29 UTC.
Position S 27°33' W 047°54'.

Length 272.1 m; beam 40.1 m; draft 13.2 m.

Type: Ship (hazmat cat B). MMSI: 218132000.

Date/timePositionNaut miles runAvg speedWind from/ knotsBaromVisibWave heightAir tempDewpointWater temp
2015-Sep-03 11:17S 27°33' W 047°54'19615.4
2015-Sep-02 22:33S 24°31' W 046°34'1514.9
2015-Sep-02 21:34S 24°17' W 046°28'1514.9
2015-Sep-02 20:33S 24°03' W 046°22'7 6.6
2015-Sep-02 19:33S 23°58' W 046°18'0 0.0
2015-Sep-02 18:15S 23°58' W 046°18'0 0.0
2015-Sep-02 17:27S 23°58' W 046°18'0 0.0
2015-Sep-02 16:15S 23°58' W 046°18'0 0.0
2015-Sep-02 14:27S 23°58' W 046°18'0 0.0
2015-Sep-02 13:27S 23°58' W 046°18'0 0.0
2015-Sep-02 11:33S 23°58' W 046°18'0 0.0
2015-Sep-02 10:21S 23°58' W 046°18'0 0.0
2015-Sep-02 08:27S 23°58' W 046°18'0 0.0
2015-Sep-02 06:27S 23°58' W 046°18'3 3.4
2015-Sep-02 05:33S 23°60' W 046°20'8 8.5
2015-Sep-02 04:33S 24°05' W 046°12'2 2.5
2015-Sep-02 03:33S 24°05' W 046°10'1 0.7
2015-Sep-02 02:33S 24°05' W 046°09'0 0.2
2015-Sep-02 01:33S 24°05' W 046°09'3 3.4
2015-Sep-02 00:33S 24°04' W 046°05'61314.4
2015-Aug-31 06:00S 17°18' W 037°54'   070 / 111019.410.8 1.022.718.026.0
2015-Aug-27 18:00N 01°30' W 038°36'   110 / 211009.910.8 2.532.122.228.0
2015-Aug-25 06:00N 14°00' W 051°36'21718.1 020 / 221009.0 5.4 3.526.825.028.0
2015-Aug-24 18:00N 16°30' W 054°18'   070 / 221011.910.8 3.529.124.428.0

Dump ship's entire track history